Terminal Aerodrome Forecast
Issued by NWS

Home | Current Version | Previous Version | Text Only | Print | Product List | Glossary On
Versions: 1 2 3 4 5 6 7 8 9 10 11
000
FTUS43 KJKL 012339
TAFSME
TAF
KSME 012339Z 0200/0224 19003KT 3SM BR OVC003
     FM020500 32003KT 2SM -RASN OVC004
     FM021100 32003KT P6SM OVC006
     FM021400 VRB03KT P6SM SCT010 BKN022
     FM021700 VRB03KT P6SM SCT250=

USA.gov is the U.S. government's official web portal to all federal, state and local government web resources and services.